Edenburg, Pennsylvania
Current Conditions -  °F | °C
As of 9:54 PM on Tuesday 25 Nov 2014 (Local Time) from KRDG Reporting Station
Clear Clear  
Wind Chill: 39°   Ceiling: Unl
Heat Index: 39°   Visibility: 10mi
Dew Point: 30°   Wind: 3mph
Humidity: 70%   Direction: 340°NNW
Pressure: 30.13"   Gusts: NA
Location:  40.5494°N, 75.999°W
Report Text: KRDG 260254Z 34003KT 10SM CLR 04/M01 A3013 RMK AO2 SLP208 T00391011 51015
Loading
Personal Weather Stations






























Interactive Weather Map New forecast layout! Learn more

10-Day Weather Forecast

Advertisements
Track Severe Weather on mobile